Time;durP1;ratioP1;P1;durP2;ratioP2;P2;SDS_P1;SDS_P2;PMS_P1;PMS_P2;Temp;Humidity;BMP_temperature;BMP_pressure;BME280_temperature;BME280_humidity;BME280_pressure;Samples;Min_cycle;Max_cycle;Signal;HPM_P1;HPM_P2
2021/12/21 00:00:51;;;;;;;;;;;;;;;1.05;69.47;102612.13;5145226;27;26844;-89
2021/12/21 00:03:16;;;;;;;;;;;;;;;1.07;69.47;102613.09;5145994;27;27156;-89
2021/12/21 00:05:42;;;;;;;;;;;;;;;1.07;69.01;102618.16;5143277;27;26854;-88
2021/12/21 00:08:11;;;;;;;;;;;;;;;1.09;69.63;102605.53;5141629;27;26823;-88
2021/12/21 00:10:37;;;;;;;;;;;;;;;1.07;69.68;102602.03;5142023;27;26812;-87
2021/12/21 00:13:08;;;;;;;;;;;;;;;1.07;69.42;102613.09;5122263;27;27770;-88
2021/12/21 00:18:14;;;;;;;;;;;;;;;1.07;69.31;102612.22;5145376;27;27500;-89
2021/12/21 00:23:34;;;;;;;;;;;;;;;1.05;69.05;102616.38;5139048;27;26840;-89
2021/12/21 00:26:05;;;;;;;;;;;;;;;1.02;69.51;102606.03;5122044;27;26979;-88
2021/12/21 00:28:35;;;;;;;;;;;;;;;0.98;69.46;102607.59;5141616;27;27080;-88
2021/12/21 00:31:00;;;;;;;;;;;;;;;0.97;69.09;102611.81;5124445;27;26971;-88
2021/12/21 00:33:26;;;;;;;;;;;;;;;0.94;68.75;102611.69;5144005;27;56284;-88
2021/12/21 00:35:52;;;;;;;;;;;;;;;0.91;68.95;102608.13;5146183;27;26856;-90
2021/12/21 00:38:17;;;;;;;;;;;;;;;0.88;68.72;102601.25;5144762;27;27306;-90
2021/12/21 00:40:42;;;;;;;;;;;;;;;0.87;68.96;102594.41;5143982;27;26978;-89
2021/12/21 00:43:07;;;;;;;;;;;;;;;0.85;68.99;102596.03;5125482;27;56618;-90
2021/12/21 00:45:32;;;;;;;;;;;;;;;0.85;69.55;102593.50;5124302;27;51814;-88
2021/12/21 00:47:58;;;;;;;;;;;;;;;0.84;69.17;102589.22;5145786;27;27051;-88
2021/12/21 00:50:23;;;;;;;;;;;;;;;0.84;69.81;102579.03;5146272;27;26954;-87
2021/12/21 00:52:51;;;;;;;;;;;;;;;0.84;69.41;102584.13;5144531;27;27005;-88
2021/12/21 00:55:16;;;;;;;;;;;;;;;0.86;69.77;102576.56;5145033;27;27009;-87
2021/12/21 00:57:42;;;;;;;;;;;;;;;0.87;69.79;102584.25;5126197;27;28621;-88
2021/12/21 01:00:08;;;;;;;;;;;;;;;0.88;69.41;102580.91;5125417;27;26908;-87
2021/12/21 01:02:34;;;;;;;;;;;;;;;0.88;69.95;102580.91;5144699;27;26980;-87
2021/12/21 01:05:00;;;;;;;;;;;;;;;0.88;69.45;102586.00;5150945;27;26917;-87
2021/12/21 01:07:35;;;;;;;;;;;;;;;0.89;69.82;102582.66;5158756;27;27465;-86
2021/12/21 01:12:45;;;;;;;;;;;;;;;0.88;69.62;102580.03;5140958;27;26937;-88
2021/12/21 01:17:52;;;;;;;;;;;;;;;0.88;69.90;102573.28;5140387;27;26720;-88
2021/12/21 01:20:29;;;;;;;;;;;;;;;0.88;69.29;102570.72;5144821;27;26963;-89
2021/12/21 01:28:14;;;;;;;;;;;;;;;0.88;69.44;102565.66;5141840;27;26834;-87
2021/12/21 01:30:55;;;;;;;;;;;;;;;0.86;68.82;102567.22;5143519;27;26498;-88
2021/12/21 01:36:02;;;;;;;;;;;;;;;0.81;69.16;102561.09;5140747;27;26973;-88
2021/12/21 01:38:36;;;;;;;;;;;;;;;0.79;69.07;102569.44;5125737;27;28658;-89
2021/12/21 01:43:57;;;;;;;;;;;;;;;0.72;69.15;102558.16;5143536;27;27009;-88
2021/12/21 01:51:50;;;;;;;;;;;;;;;0.66;70.13;102568.06;5145328;27;26728;-87
2021/12/21 01:54:15;;;;;;;;;;;;;;;0.65;69.88;102566.31;5144351;27;56444;-88
2021/12/21 01:56:41;;;;;;;;;;;;;;;0.65;69.89;102566.31;5123812;27;48645;-89
2021/12/21 01:59:06;;;;;;;;;;;;;;;0.63;69.05;102567.06;5124648;27;28116;-88
2021/12/21 02:01:32;;;;;;;;;;;;;;;0.62;69.10;102571.28;5123556;27;26953;-87
2021/12/21 02:03:57;;;;;;;;;;;;;;;0.60;69.63;102567.78;5124503;27;27801;-88
2021/12/21 02:06:26;;;;;;;;;;;;;;;0.59;69.71;102565.19;5125229;27;26841;-87
2021/12/21 02:08:51;;;;;;;;;;;;;;;0.58;69.33;102569.41;5144384;27;27195;-87
2021/12/21 02:11:17;;;;;;;;;;;;;;;0.56;69.71;102565.94;5143770;27;26741;-88
2021/12/21 02:13:46;;;;;;;;;;;;;;;0.56;69.78;102565.94;5124597;27;29234;-88
2021/12/21 02:16:12;;;;;;;;;;;;;;;0.56;70.07;102565.94;5124311;27;27120;-88
2021/12/21 02:18:50;;;;;;;;;;;;;;;0.57;69.45;102567.66;5124863;27;29100;-88
2021/12/21 02:21:25;;;;;;;;;;;;;;;0.52;70.21;102551.34;5142906;27;26955;-88
2021/12/21 02:23:53;;;;;;;;;;;;;;;0.54;69.57;102557.34;5124012;27;28323;-88
2021/12/21 02:31:35;;;;;;;;;;;;;;;0.51;69.79;102557.22;5139707;27;26457;-88
2021/12/21 02:34:01;;;;;;;;;;;;;;;0.50;69.53;102560.56;5142697;27;27189;-88
2021/12/21 02:36:26;;;;;;;;;;;;;;;0.50;69.47;102550.41;5143995;27;26681;-87
2021/12/21 02:38:53;;;;;;;;;;;;;;;0.52;69.98;102558.97;5141766;27;50933;-89
2021/12/21 02:41:18;;;;;;;;;;;;;;;0.52;69.04;102548.81;5143440;27;26737;-87
2021/12/21 02:43:43;;;;;;;;;;;;;;;0.51;69.05;102552.16;5123655;27;29005;-90
2021/12/21 02:46:08;;;;;;;;;;;;;;;0.49;69.69;102553.75;5124184;27;27895;-88
2021/12/21 02:48:34;;;;;;;;;;;;;;;0.47;69.39;102550.28;5141994;27;26910;-88
2021/12/21 02:50:59;;;;;;;;;;;;;;;0.43;69.64;102554.34;5142444;27;27005;-88
2021/12/21 02:53:25;;;;;;;;;;;;;;;0.42;69.27;102551.72;5143178;27;26901;-89
2021/12/21 02:55:50;;;;;;;;;;;;;;;0.43;69.75;102553.47;5143320;27;26822;-88
2021/12/21 02:58:15;;;;;;;;;;;;;;;0.42;69.38;102546.66;5124651;27;47182;-87
2021/12/21 03:00:40;;;;;;;;;;;;;;;0.40;69.48;102544.06;5123360;27;35350;-89
2021/12/21 03:03:13;;;;;;;;;;;;;;;0.40;69.60;102548.25;5141900;27;26997;-89
2021/12/21 03:05:39;;;;;;;;;;;;;;;0.38;69.50;102549.84;5141509;27;26341;-88
2021/12/21 03:10:29;;;;;;;;;;;;;;;0.39;69.93;102551.59;5139885;27;26745;-89
2021/12/21 03:15:38;;;;;;;;;;;;;;;0.44;69.56;102547.59;5139456;27;26398;-87
2021/12/21 03:18:04;;;;;;;;;;;;;;;0.47;69.54;102545.19;5141443;27;38618;-87
2021/12/21 03:20:32;;;;;;;;;;;;;;;0.50;69.17;102535.16;5142738;27;27201;-88
2021/12/21 03:22:57;;;;;;;;;;;;;;;0.49;68.85;102538.47;5142464;27;26747;-87
2021/12/21 03:25:22;;;;;;;;;;;;;;;0.45;69.56;102541.72;5141366;27;26903;-89
2021/12/21 03:27:47;;;;;;;;;;;;;;;0.37;69.27;102537.97;5123246;27;56176;-89
2021/12/21 03:30:14;;;;;;;;;;;;;;;0.29;69.37;102535.09;5144900;27;48274;-88
2021/12/21 03:32:39;;;;;;;;;;;;;;;0.25;69.31;102537.41;5149067;27;27060;-88
2021/12/21 03:35:05;;;;;;;;;;;;;;;0.21;69.27;102535.53;5127057;27;36554;-87
2021/12/21 03:37:30;;;;;;;;;;;;;;;0.19;69.78;102532.91;5125444;27;27592;-87
2021/12/21 03:39:56;;;;;;;;;;;;;;;0.20;69.24;102533.78;5123291;27;53030;-88
2021/12/21 03:42:24;;;;;;;;;;;;;;;0.21;69.93;102535.53;5142214;27;26868;-88
2021/12/21 03:44:49;;;;;;;;;;;;;;;0.22;70.11;102537.28;5143071;27;26742;-88
2021/12/21 03:47:16;;;;;;;;;;;;;;;0.22;69.39;102542.38;5144660;27;27938;-87
2021/12/21 03:52:09;;;;;;;;;;;;;;;0.22;69.55;102535.63;5140181;27;27362;-88
2021/12/21 03:54:35;;;;;;;;;;;;;;;0.23;69.94;102523.75;5142749;27;44888;-87
2021/12/21 03:57:01;;;;;;;;;;;;;;;0.24;70.20;102533.13;5123883;27;27775;-88
2021/12/21 03:59:27;;;;;;;;;;;;;;;0.25;69.54;102527.25;5141034;27;26823;-89
2021/12/21 04:01:52;;;;;;;;;;;;;;;0.27;69.55;102535.81;5122689;27;28591;-88
2021/12/21 04:04:18;;;;;;;;;;;;;;;0.28;69.96;102527.38;5140626;27;26647;-89
2021/12/21 04:06:44;;;;;;;;;;;;;;;0.27;69.51;102525.63;5122605;27;28114;-88
2021/12/21 04:09:10;;;;;;;;;;;;;;;0.25;69.92;102527.25;5146084;27;26629;-87
2021/12/21 04:11:35;;;;;;;;;;;;;;;0.22;69.06;102524.59;5145434;27;27129;-87
2021/12/21 04:14:01;;;;;;;;;;;;;;;0.19;69.52;102529.53;5127363;27;27653;-88
2021/12/21 04:16:27;;;;;;;;;;;;;;;0.15;69.21;102525.13;5144915;27;27563;-88
2021/12/21 04:18:52;;;;;;;;;;;;;;;0.12;69.25;102520.75;5125974;27;27003;-88
2021/12/21 04:21:17;;;;;;;;;;;;;;;0.09;69.72;102527.38;5126821;27;29481;-88
2021/12/21 04:23:43;;;;;;;;;;;;;;;0.06;69.37;102525.56;5145141;27;26805;-87
2021/12/21 04:26:10;;;;;;;;;;;;;;;0.05;69.12;102517.88;5145369;27;27187;-88
2021/12/21 04:28:35;;;;;;;;;;;;;;;0.04;69.26;102516.16;5145755;27;26773;-87
2021/12/21 04:31:00;;;;;;;;;;;;;;;0.00;69.89;102515.97;5126984;27;27524;-88
2021/12/21 04:33:26;;;;;;;;;;;;;;;0.00;69.81;102510.91;5126468;27;26960;-88
2021/12/21 04:35:51;;;;;;;;;;;;;;;-0.01;69.56;102509.19;5126516;27;28370;-87
2021/12/21 04:38:21;;;;;;;;;;;;;;;0.00;69.08;102515.97;5143686;27;55275;-88
2021/12/21 04:41:09;;;;;;;;;;;;;;;0.00;69.73;102510.91;5143960;27;27231;-87
2021/12/21 04:43:34;;;;;;;;;;;;;;;-0.03;69.44;102505.69;5145287;27;26957;-87
2021/12/21 04:46:00;;;;;;;;;;;;;;;-0.04;69.44;102503.94;5126907;27;27853;-88
2021/12/21 04:48:25;;;;;;;;;;;;;;;-0.06;69.62;102505.56;5144579;27;26937;-89
2021/12/21 04:50:51;;;;;;;;;;;;;;;-0.07;69.03;102508.88;5128845;27;28538;-88
2021/12/21 04:53:17;;;;;;;;;;;;;;;-0.09;69.19;102509.63;5148230;27;27126;-88
2021/12/21 04:55:42;;;;;;;;;;;;;;;-0.10;69.04;102518.03;5146280;27;27139;-88
2021/12/21 04:58:07;;;;;;;;;;;;;;;-0.10;68.98;102512.97;5145249;27;26884;-88
2021/12/21 05:00:33;;;;;;;;;;;;;;;-0.12;69.82;102512.91;5145661;27;26938;-87
2021/12/21 05:02:58;;;;;;;;;;;;;;;-0.13;70.03;102508.63;5143876;27;27097;-87
2021/12/21 05:05:24;;;;;;;;;;;;;;;-0.14;69.97;102511.94;5146889;27;28074;-87
2021/12/21 05:07:54;;;;;;;;;;;;;;;-0.14;69.69;102522.09;5150557;27;26992;-88
2021/12/21 05:10:21;;;;;;;;;;;;;;;-0.14;70.17;102511.94;5148086;27;27334;-87
2021/12/21 05:12:47;;;;;;;;;;;;;;;-0.60;69.33;102429.44;5145314;27;26775;-87
2021/12/21 05:15:13;;;;;;;;;;;;;;;-0.12;69.86;102510.38;5144453;27;27904;-89
2021/12/21 05:17:38;;;;;;;;;;;;;;;-0.10;69.48;102513.84;5124870;27;26813;-88
2021/12/21 05:20:04;;;;;;;;;;;;;;;-0.10;69.71;102518.91;5143117;27;27022;-87
2021/12/21 05:22:29;;;;;;;;;;;;;;;-0.09;69.83;102519.78;5143863;27;26752;-87
2021/12/21 05:24:56;;;;;;;;;;;;;;;-0.09;70.21;102513.03;5144714;27;37428;-88
2021/12/21 05:27:23;;;;;;;;;;;;;;;-0.09;69.33;102517.25;5143440;27;26896;-88
2021/12/21 05:29:49;;;;;;;;;;;;;;;-0.12;69.71;102510.38;5147614;27;27106;-88
2021/12/21 05:32:14;;;;;;;;;;;;;;;-0.12;69.71;102507.84;5144171;27;26733;-88
2021/12/21 05:34:40;;;;;;;;;;;;;;;-0.14;69.62;102511.94;5143925;27;26944;-88
2021/12/21 05:37:07;;;;;;;;;;;;;;;-0.15;69.17;102509.38;5150810;27;26810;-88
2021/12/21 05:39:42;;;;;;;;;;;;;;;-0.19;69.23;102513.41;5128664;27;27600;-87
2021/12/21 05:42:08;;;;;;;;;;;;;;;-0.28;68.96;102513.00;5147324;27;26422;-88
2021/12/21 05:44:33;;;;;;;;;;;;;;;-0.35;69.20;102505.91;5143041;27;27889;-90
2021/12/21 05:47:00;;;;;;;;;;;;;;;-0.39;69.30;102509.09;5143206;27;26609;-88
2021/12/21 05:49:25;;;;;;;;;;;;;;;-0.39;69.21;102504.00;5100101;28;26935;-89
2021/12/21 05:51:50;;;;;;;;;;;;;;;-0.35;69.48;102507.56;5080838;28;54737;-89
2021/12/21 05:54:18;;;;;;;;;;;;;;;-0.30;69.19;102509.50;5099732;28;27598;-89
2021/12/21 05:56:45;;;;;;;;;;;;;;;-0.25;69.58;102518.22;5081710;28;26829;-89
2021/12/21 05:59:11;;;;;;;;;;;;;;;-0.19;69.89;102518.47;5099878;28;27199;-88
2021/12/21 06:01:36;;;;;;;;;;;;;;;-0.15;70.05;102520.38;5099853;28;26674;-88
2021/12/21 06:04:02;;;;;;;;;;;;;;;-0.13;69.95;102523.84;5098381;28;26928;-88
2021/12/21 06:06:27;;;;;;;;;;;;;;;-0.10;69.79;102516.38;5099253;28;26917;-89
2021/12/21 06:08:54;;;;;;;;;;;;;;;-0.08;69.40;102521.53;5099177;28;26953;-88
2021/12/21 06:11:21;;;;;;;;;;;;;;;-0.07;69.57;102528.34;5101845;28;26822;-88
2021/12/21 06:22:44;;;;;;;;;;;;;;;-0.05;69.32;102512.38;5097198;28;27077;-88
2021/12/21 06:25:22;;;;;;;;;;;;;;;-0.09;69.83;102523.19;5100541;28;26964;-88
2021/12/21 06:27:33;;;;;;;;;;;;;;;-0.12;69.64;102520.53;5101704;28;27242;-89
2021/12/21 06:29:58;;;;;;;;;;;;;;;-0.13;69.34;102526.41;5100453;27;26969;-89
2021/12/21 06:32:24;;;;;;;;;;;;;;;-0.16;68.81;102523.72;5087422;27;26945;-89
2021/12/21 06:34:49;;;;;;;;;;;;;;;-0.17;68.81;102527.06;5123680;27;28626;-88
2021/12/21 06:37:14;;;;;;;;;;;;;;;-0.19;69.40;102528.63;5144152;27;26836;-89
2021/12/21 06:39:39;;;;;;;;;;;;;;;-0.21;69.42;102535.31;5142699;27;26988;-86
2021/12/21 06:42:06;;;;;;;;;;;;;;;-0.22;69.59;102525.09;5143435;27;26735;-89
2021/12/21 06:44:33;;;;;;;;;;;;;;;-0.24;68.70;102525.03;5142247;27;27129;-88
2021/12/21 06:51:08;;;;;;;;;;;;;;;-0.26;69.47;102521.53;5143004;27;26971;-88
2021/12/21 06:52:34;;;;;;;;;;;;;;;-0.27;69.50;102524.91;5142060;27;26814;-89
2021/12/21 06:55:00;;;;;;;;;;;;;;;-0.27;68.78;102524.91;5123770;27;27659;-89
2021/12/21 06:57:26;;;;;;;;;;;;;;;-0.28;69.40;102518.06;5123479;27;26902;-89
2021/12/21 06:59:53;;;;;;;;;;;;;;;-0.29;69.19;102520.53;5138547;27;27383;-86
2021/12/21 07:02:18;;;;;;;;;;;;;;;-0.31;69.07;102523.00;5139461;27;26949;-88
2021/12/21 07:04:43;;;;;;;;;;;;;;;-0.30;69.21;102519.66;5138120;27;27462;-89
2021/12/21 07:07:10;;;;;;;;;;;;;;;-0.30;69.45;102523.88;5138954;27;27034;-89
2021/12/21 07:09:42;;;;;;;;;;;;;;;-0.30;69.98;102524.72;5137814;27;26943;-89
2021/12/21 07:18:06;;;;;;;;;;;;;;;-0.26;69.77;102524.06;5139529;27;26903;-88
2021/12/21 07:20:19;;;;;;;;;;;;;;;-0.26;69.78;102531.69;5139766;27;26895;-87
2021/12/21 07:22:45;;;;;;;;;;;;;;;-0.28;68.80;102528.22;5140165;27;26880;-87
2021/12/21 07:25:10;;;;;;;;;;;;;;;-0.28;69.01;102528.22;5136226;27;35587;-89
2021/12/21 07:27:35;;;;;;;;;;;;;;;-0.30;68.68;102529.81;5118525;27;27036;-89
2021/12/21 07:30:01;;;;;;;;;;;;;;;-0.32;69.03;102526.34;5121817;27;36768;-89
2021/12/21 07:32:26;;;;;;;;;;;;;;;-0.34;69.21;102532.16;5140810;27;26994;-89
2021/12/21 07:34:52;;;;;;;;;;;;;;;-0.35;68.90;102526.22;5121055;27;27339;-89
2021/12/21 07:37:18;;;;;;;;;;;;;;;-0.36;68.94;102537.16;5082179;27;26902;-88
2021/12/21 07:39:43;;;;;;;;;;;;;;;-0.38;69.01;102531.16;5135491;27;26998;-88
2021/12/21 07:42:09;;;;;;;;;;;;;;;-0.39;69.33;102534.47;5118947;27;26901;-88
2021/12/21 07:44:34;;;;;;;;;;;;;;;-0.40;69.31;102537.78;5135922;27;57201;-88
2021/12/21 07:47:00;;;;;;;;;;;;;;;-0.39;69.89;102538.66;5145381;27;27083;-88
2021/12/21 07:49:25;;;;;;;;;;;;;;;-0.37;69.48;102543.00;5117904;27;27996;-90
2021/12/21 07:51:51;;;;;;;;;;;;;;;-0.35;69.96;102541.44;5136597;27;26886;-88
2021/12/21 07:54:17;;;;;;;;;;;;;;;-0.33;69.57;102539.81;5136585;27;28171;-88
2021/12/21 07:56:43;;;;;;;;;;;;;;;-0.31;69.26;102542.44;5137076;27;26994;-87
2021/12/21 07:59:08;;;;;;;;;;;;;;;-0.30;69.68;102539.97;5130563;27;27117;-88
2021/12/21 08:01:34;;;;;;;;;;;;;;;-0.28;69.57;102543.47;5109946;27;27379;-87
2021/12/21 08:03:59;;;;;;;;;;;;;;;-0.28;69.52;102543.47;5127667;27;27400;-88
2021/12/21 08:06:28;;;;;;;;;;;;;;;-0.27;69.69;102535.06;5111728;27;27254;-87
2021/12/21 08:08:53;;;;;;;;;;;;;;;-0.28;69.95;102538.38;5131793;27;26835;-87
2021/12/21 08:12:10;;;;;;;;;;;;;;;-0.28;69.16;102543.47;5132046;27;26870;-87
2021/12/21 08:14:12;;;;;;;;;;;;;;;-0.26;70.14;102546.91;5131005;27;26891;-87
2021/12/21 08:16:38;;;;;;;;;;;;;;;-0.23;69.84;102548.75;5113255;27;26882;-88
2021/12/21 08:19:03;;;;;;;;;;;;;;;-0.20;69.55;102552.31;5132693;27;27988;-87
2021/12/21 08:21:29;;;;;;;;;;;;;;;-0.16;70.17;102551.66;5119434;27;54234;-88
2021/12/21 08:23:54;;;;;;;;;;;;;;;-0.13;70.14;102549.25;5142044;27;27087;-87
2021/12/21 08:26:20;;;;;;;;;;;;;;;-0.10;69.57;102554.47;5137369;27;54346;-87
2021/12/21 08:28:45;;;;;;;;;;;;;;;-0.08;69.85;102557.97;5121189;27;27813;-87
2021/12/21 08:31:13;;;;;;;;;;;;;;;-0.05;69.43;102552.16;5143002;27;26856;-87
2021/12/21 08:33:39;;;;;;;;;;;;;;;-0.04;70.32;102554.72;5141945;27;28167;-87
2021/12/21 08:36:05;;;;;;;;;;;;;;;0.02;70.20;102563.44;5145719;27;26573;-88
2021/12/21 08:38:32;;;;;;;;;;;;;;;0.06;70.12;102555.16;5145941;27;29235;-86
2021/12/21 08:40:59;;;;;;;;;;;;;;;0.08;70.17;102553.56;5139450;27;26818;-87
2021/12/21 08:43:25;;;;;;;;;;;;;;;0.12;69.73;102560.53;5138238;27;27181;-87
2021/12/21 08:45:52;;;;;;;;;;;;;;;0.14;69.50;102558.94;5137729;27;26831;-88
2021/12/21 08:48:18;;;;;;;;;;;;;;;0.18;69.54;102563.34;5137084;27;27037;-88
2021/12/21 08:50:43;;;;;;;;;;;;;;;0.21;70.39;102554.19;5137422;27;26966;-87
2021/12/21 08:53:08;;;;;;;;;;;;;;;0.26;69.25;102559.50;5135721;27;28363;-87
2021/12/21 08:55:34;;;;;;;;;;;;;;;0.29;69.88;102550.34;5141167;27;26938;-87
2021/12/21 08:57:59;;;;;;;;;;;;;;;0.34;69.67;102559.00;5138417;27;28666;-87
2021/12/21 09:00:24;;;;;;;;;;;;;;;0.39;69.41;102556.69;5141029;27;27140;-88
2021/12/21 09:02:51;;;;;;;;;;;;;;;0.44;69.60;102551.03;5119677;27;28203;-88
2021/12/21 09:05:19;;;;;;;;;;;;;;;0.46;69.66;102544.31;5140315;27;26895;-87
2021/12/21 09:07:46;;;;;;;;;;;;;;;0.56;70.14;102545.59;5137670;27;26915;-87
2021/12/21 09:10:12;;;;;;;;;;;;;;;0.61;70.21;102543.22;5134307;27;27265;-87
2021/12/21 09:12:38;;;;;;;;;;;;;;;0.68;69.91;102538.47;5114634;27;27953;-88
2021/12/21 09:15:06;;;;;;;;;;;;;;;0.75;70.48;102548.09;5133687;27;27079;-88
2021/12/21 09:17:31;;;;;;;;;;;;;;;0.83;69.97;102540.81;5115339;27;27626;-87
2021/12/21 09:19:57;;;;;;;;;;;;;;;0.92;70.17;102542.09;5139187;27;27328;-87
2021/12/21 09:22:22;;;;;;;;;;;;;;;0.95;69.86;102537.13;5141131;27;27068;-88
2021/12/21 09:24:47;;;;;;;;;;;;;;;1.07;70.25;102540.97;5140225;27;26734;-88
2021/12/21 09:27:13;;;;;;;;;;;;;;;1.13;70.09;102541.22;5122161;27;58161;-86
2021/12/21 09:29:39;;;;;;;;;;;;;;;1.18;70.05;102544.81;5143139;27;26957;-88
2021/12/21 09:32:05;;;;;;;;;;;;;;;1.24;70.33;102529.78;5118927;27;27894;-88
2021/12/21 09:34:31;;;;;;;;;;;;;;;1.34;70.58;102542.97;5140774;27;26868;-86
2021/12/21 09:36:56;;;;;;;;;;;;;;;1.42;70.65;102536.50;5142807;27;27950;-88
2021/12/21 09:39:21;;;;;;;;;;;;;;;1.49;70.58;102532.53;5122468;27;26918;-87
2021/12/21 09:41:47;;;;;;;;;;;;;;;1.56;70.40;102539.59;5140133;27;27008;-87
2021/12/21 09:44:12;;;;;;;;;;;;;;;1.62;70.15;102534.75;5119697;27;41831;-88
2021/12/21 09:46:37;;;;;;;;;;;;;;;1.71;70.49;102542.75;5120712;27;28773;-88
2021/12/21 09:49:03;;;;;;;;;;;;;;;1.77;70.38;102542.97;5138703;27;27200;-87
2021/12/21 09:51:28;;;;;;;;;;;;;;;1.84;70.59;102542.41;5137820;27;27295;-88
2021/12/21 09:53:55;;;;;;;;;;;;;;;1.68;70.47;102504.44;5138251;27;27211;-88
2021/12/21 09:56:20;;;;;;;;;;;;;;;1.98;70.63;102542.06;5137886;27;27103;-89
2021/12/21 09:58:46;;;;;;;;;;;;;;;2.05;70.61;102534.72;5139116;27;27073;-89
2021/12/21 10:01:11;;;;;;;;;;;;;;;2.13;70.74;102535.88;5140966;27;27951;-87
2021/12/21 10:03:36;;;;;;;;;;;;;;;2.21;70.76;102538.72;5138896;27;27207;-88
2021/12/21 10:06:06;;;;;;;;;;;;;;;2.26;70.92;102538.06;5136131;27;26879;-88
2021/12/21 10:08:32;;;;;;;;;;;;;;;2.33;70.42;102534.03;5138681;27;26953;-88
2021/12/21 10:10:58;;;;;;;;;;;;;;;2.40;70.82;102536.00;5123683;27;28030;-87
2021/12/21 10:13:24;;;;;;;;;;;;;;;2.47;70.46;102537.09;5141575;27;27124;-88
2021/12/21 10:15:51;;;;;;;;;;;;;;;2.53;70.70;102538.19;5140963;27;26938;-88
2021/12/21 10:18:25;;;;;;;;;;;;;;;2.61;70.78;102536.78;5121821;27;27068;-88
2021/12/21 10:20:51;;;;;;;;;;;;;;;2.69;70.46;102532.81;5139943;27;28041;-88
2021/12/21 10:23:16;;;;;;;;;;;;;;;2.72;70.80;102530.38;5141572;27;26928;-87
2021/12/21 10:25:44;;;;;;;;;;;;;;;2.86;70.50;102526.59;5143670;27;26976;-87
2021/12/21 10:28:09;;;;;;;;;;;;;;;2.95;70.56;102532.84;5145144;27;26887;-88
2021/12/21 10:30:49;;;;;;;;;;;;;;;3.03;70.10;102541.63;5142693;27;27150;-88
2021/12/21 10:33:14;;;;;;;;;;;;;;;3.09;70.62;102529.06;5141824;27;26895;-88
2021/12/21 10:35:39;;;;;;;;;;;;;;;3.21;70.52;102537.13;5123592;27;27799;-89
2021/12/21 10:38:05;;;;;;;;;;;;;;;3.29;70.84;102533.13;5141217;27;55306;-88
2021/12/21 10:40:30;;;;;;;;;;;;;;;3.38;70.05;102530.88;5145507;27;26913;-87
2021/12/21 10:42:55;;;;;;;;;;;;;;;3.47;70.33;102523.50;5144770;27;26559;-87
2021/12/21 10:45:30;;;;;;;;;;;;;;;3.54;70.27;102515.22;5124618;27;27036;-87
2021/12/21 10:47:56;;;;;;;;;;;;;;;3.63;70.61;102514.63;5150953;27;27012;-87
2021/12/21 10:50:21;;;;;;;;;;;;;;;3.71;70.62;102516.59;5138764;27;27033;-87
2021/12/21 10:52:54;;;;;;;;;;;;;;;3.79;70.34;102519.38;5111921;27;27196;-87
2021/12/21 10:55:23;;;;;;;;;;;;;;;3.89;70.29;102512.06;5130970;27;27274;-88
2021/12/21 10:57:48;;;;;;;;;;;;;;;3.95;70.26;102508.78;5133901;27;27226;-86
2021/12/21 11:00:16;;;;;;;;;;;;;;;4.04;69.93;102510.75;5115060;27;53658;-88
2021/12/21 11:02:44;;;;;;;;;;;;;;;4.11;70.04;102502.44;5135185;27;27158;-88
2021/12/21 11:05:15;;;;;;;;;;;;;;;4.18;70.41;102504.34;5131691;27;26895;-88
2021/12/21 11:10:11;;;;;;;;;;;;;;;4.28;70.10;102491.84;5123635;27;26849;-87
2021/12/21 11:12:41;;;;;;;;;;;;;;;4.36;70.17;102494.63;5106909;27;26867;-88
2021/12/21 11:15:08;;;;;;;;;;;;;;;4.42;69.27;102505.03;5125127;27;27970;-87
2021/12/21 11:17:33;;;;;;;;;;;;;;;4.47;70.38;102497.47;5127247;27;26987;-86
2021/12/21 11:19:58;;;;;;;;;;;;;;;4.53;70.53;102493.41;5125605;27;26992;-87
2021/12/21 11:22:24;;;;;;;;;;;;;;;4.60;70.55;102494.44;5123965;27;54100;-87
2021/12/21 11:24:51;;;;;;;;;;;;;;;4.65;70.45;102492.88;5128517;27;27269;-87
2021/12/21 11:27:18;;;;;;;;;;;;;;;4.71;70.08;102488.78;5127860;27;27033;-88
2021/12/21 11:29:43;;;;;;;;;;;;;;;4.76;69.57;102476.94;5130074;27;27506;-87
2021/12/21 11:32:09;;;;;;;;;;;;;;;4.80;69.99;102481.31;5130692;27;26974;-87
2021/12/21 11:34:46;;;;;;;;;;;;;;;4.86;70.40;102478.94;5130783;27;27125;-87
2021/12/21 11:37:21;;;;;;;;;;;;;;;4.93;69.59;102468.81;5088261;27;27259;-87
2021/12/21 11:39:46;;;;;;;;;;;;;;;4.99;70.57;102468.97;5136341;27;27432;-87
2021/12/21 11:42:19;;;;;;;;;;;;;;;5.02;69.59;102474.19;5134466;27;27078;-87
2021/12/21 11:44:53;;;;;;;;;;;;;;;5.09;69.95;102465.81;5136013;27;28338;-86
2021/12/21 11:47:23;;;;;;;;;;;;;;;5.15;70.36;102471.06;5134430;27;26912;-86
2021/12/21 11:49:50;;;;;;;;;;;;;;;5.21;70.40;102471.25;5136411;27;27402;-86
2021/12/21 11:52:16;;;;;;;;;;;;;;;5.28;69.67;102468.00;5141764;27;26988;-86
2021/12/21 11:54:43;;;;;;;;;;;;;;;5.34;70.47;102468.13;5140360;27;27536;-86
2021/12/21 11:57:08;;;;;;;;;;;;;;;5.38;70.53;102469.94;5138334;27;26789;-87
2021/12/21 11:59:33;;;;;;;;;;;;;;;5.41;69.36;102459.75;5132895;27;56329;-87
2021/12/21 12:02:01;;;;;;;;;;;;;;;5.44;70.44;102459.81;5136574;27;27092;-87
2021/12/21 12:04:26;;;;;;;;;;;;;;;5.47;70.07;102453.91;5114199;27;28806;-86
2021/12/21 12:06:53;;;;;;;;;;;;;;;5.50;70.36;102452.28;5135400;27;38870;-87
2021/12/21 12:09:25;;;;;;;;;;;;;;;5.52;70.49;102465.97;5134989;27;27998;-87
2021/12/21 12:11:54;;;;;;;;;;;;;;;5.55;70.45;102463.47;5134925;27;26792;-88
2021/12/21 12:14:20;;;;;;;;;;;;;;;5.59;69.59;102457.59;5133250;27;27935;-87
2021/12/21 12:16:50;;;;;;;;;;;;;;;5.60;69.63;102451.63;5134640;27;26813;-87
2021/12/21 12:19:17;;;;;;;;;;;;;;;5.62;70.52;102450.00;5131809;27;27257;-86
2021/12/21 12:21:59;;;;;;;;;;;;;;;5.65;70.32;102455.19;5117388;27;27102;-87
2021/12/21 12:24:26;;;;;;;;;;;;;;;5.68;69.82;102455.22;5116340;27;27934;-87
2021/12/21 12:26:57;;;;;;;;;;;;;;;5.71;69.65;102460.41;5117601;27;26877;-87
2021/12/21 12:29:23;;;;;;;;;;;;;;;5.74;69.64;102450.22;5137877;27;26939;-87
2021/12/21 12:32:06;;;;;;;;;;;;;;;5.75;69.60;102451.97;5118392;27;27289;-86
2021/12/21 12:34:35;;;;;;;;;;;;;;;5.76;69.55;102448.56;5136097;27;27365;-86
2021/12/21 12:37:12;;;;;;;;;;;;;;;5.80;69.90;102450.38;5135067;27;27125;-87
2021/12/21 12:39:38;;;;;;;;;;;;;;;5.83;70.16;102442.75;5135382;27;27112;-86
2021/12/21 12:42:08;;;;;;;;;;;;;;;5.87;69.56;102441.13;5140191;27;26997;-87
2021/12/21 12:44:34;;;;;;;;;;;;;;;5.93;69.81;102440.38;5123075;27;27931;-87
2021/12/21 12:47:02;;;;;;;;;;;;;;;5.92;69.80;102428.41;5138623;27;26998;-87
2021/12/21 12:49:28;;;;;;;;;;;;;;;5.98;69.90;102433.66;5141877;27;27354;-86
2021/12/21 12:52:06;;;;;;;;;;;;;;;5.99;70.49;102435.41;5157011;27;26676;-87
2021/12/21 12:54:41;;;;;;;;;;;;;;;5.98;70.38;102423.41;5156112;27;27099;-88
2021/12/21 12:57:08;;;;;;;;;;;;;;;6.02;69.57;102430.31;5144464;27;27003;-88
2021/12/21 12:59:35;;;;;;;;;;;;;;;6.04;69.90;102428.63;5145390;27;28203;-87
2021/12/21 13:02:06;;;;;;;;;;;;;;;6.06;70.25;102427.84;5130649;27;26886;-87
2021/12/21 13:04:32;;;;;;;;;;;;;;;6.08;70.35;102428.72;5141414;27;27887;-87
2021/12/21 13:06:57;;;;;;;;;;;;;;;6.11;70.36;102425.38;5137734;27;26866;-87
2021/12/21 13:09:23;;;;;;;;;;;;;;;6.12;70.10;102432.22;5143339;27;27111;-87
2021/12/21 13:11:48;;;;;;;;;;;;;;;6.12;69.46;102422.81;5143378;27;27022;-87
2021/12/21 13:14:14;;;;;;;;;;;;;;;6.12;69.63;102421.97;5141492;27;27162;-86
2021/12/21 13:16:40;;;;;;;;;;;;;;;6.11;69.58;102420.25;5142594;27;26987;-86
2021/12/21 13:19:09;;;;;;;;;;;;;;;6.11;69.38;102415.13;5142859;27;27305;-86
2021/12/21 13:21:36;;;;;;;;;;;;;;;6.12;70.23;102417.69;5124645;27;26925;-87
2021/12/21 13:24:04;;;;;;;;;;;;;;;6.13;69.54;102423.69;5141769;27;26889;-87
2021/12/21 13:26:34;;;;;;;;;;;;;;;6.12;69.33;102417.69;5121536;27;26985;-87
2021/12/21 13:28:59;;;;;;;;;;;;;;;6.12;69.48;102421.97;5122581;27;28064;-87
2021/12/21 13:31:25;;;;;;;;;;;;;;;6.11;69.36;102421.09;5140895;27;26849;-88
2021/12/21 13:33:51;;;;;;;;;;;;;;;6.12;69.48;102424.53;5138981;27;27139;-88
2021/12/21 13:36:17;;;;;;;;;;;;;;;6.11;69.20;102425.38;5142904;27;26915;-86
2021/12/21 13:38:42;;;;;;;;;;;;;;;5.81;69.48;102375.16;5141479;27;26968;-87
2021/12/21 13:41:11;;;;;;;;;;;;;;;6.07;69.27;102423.59;5141823;27;26759;-87